sensor_id;sensor_type;location;lat;lon;timestamp;P1;durP1;ratioP1;P2;durP2;ratioP2
4049;SDS011;2039;50.894;6.888;2023-08-30T00:00:04;90.10;;;44.27;;
4049;SDS011;2039;50.894;6.888;2023-08-30T00:02:30;89.97;;;45.43;;
4049;SDS011;2039;50.894;6.888;2023-08-30T00:04:59;87.33;;;41.87;;
4049;SDS011;2039;50.894;6.888;2023-08-30T00:07:25;88.17;;;46.27;;
4049;SDS011;2039;50.894;6.888;2023-08-30T00:09:51;89.70;;;45.20;;
4049;SDS011;2039;50.894;6.888;2023-08-30T00:12:17;86.20;;;38.97;;
4049;SDS011;2039;50.894;6.888;2023-08-30T00:14:43;90.63;;;45.77;;
4049;SDS011;2039;50.894;6.888;2023-08-30T00:17:08;89.23;;;44.30;;
4049;SDS011;2039;50.894;6.888;2023-08-30T00:19:34;87.63;;;45.13;;
4049;SDS011;2039;50.894;6.888;2023-08-30T00:22:00;91.30;;;48.97;;
4049;SDS011;2039;50.894;6.888;2023-08-30T00:24:25;88.20;;;45.23;;
4049;SDS011;2039;50.894;6.888;2023-08-30T00:26:51;89.97;;;48.27;;
4049;SDS011;2039;50.894;6.888;2023-08-30T00:29:17;87.13;;;41.03;;
4049;SDS011;2039;50.894;6.888;2023-08-30T00:31:42;90.00;;;45.67;;
4049;SDS011;2039;50.894;6.888;2023-08-30T00:34:08;96.83;;;43.83;;
4049;SDS011;2039;50.894;6.888;2023-08-30T00:36:34;85.67;;;38.00;;
4049;SDS011;2039;50.894;6.888;2023-08-30T00:38:59;86.17;;;39.80;;
4049;SDS011;2039;50.894;6.888;2023-08-30T00:41:25;89.13;;;41.30;;
4049;SDS011;2039;50.894;6.888;2023-08-30T00:43:50;84.83;;;39.13;;
4049;SDS011;2039;50.894;6.888;2023-08-30T00:46:16;84.03;;;36.30;;
4049;SDS011;2039;50.894;6.888;2023-08-30T00:48:43;87.10;;;40.97;;
4049;SDS011;2039;50.894;6.888;2023-08-30T00:51:09;85.47;;;39.43;;
4049;SDS011;2039;50.894;6.888;2023-08-30T00:53:35;89.20;;;40.03;;
4049;SDS011;2039;50.894;6.888;2023-08-30T00:56:01;85.37;;;38.43;;
4049;SDS011;2039;50.894;6.888;2023-08-30T00:58:27;89.43;;;44.17;;
4049;SDS011;2039;50.894;6.888;2023-08-30T01:00:53;87.67;;;40.93;;
4049;SDS011;2039;50.894;6.888;2023-08-30T01:03:20;83.00;;;33.37;;
4049;SDS011;2039;50.894;6.888;2023-08-30T01:05:46;87.27;;;37.80;;
4049;SDS011;2039;50.894;6.888;2023-08-30T01:08:12;82.13;;;30.70;;
4049;SDS011;2039;50.894;6.888;2023-08-30T01:13:23;83.33;;;35.83;;
4049;SDS011;2039;50.894;6.888;2023-08-30T01:15:52;85.80;;;35.27;;
4049;SDS011;2039;50.894;6.888;2023-08-30T01:18:20;81.03;;;30.77;;
4049;SDS011;2039;50.894;6.888;2023-08-30T01:20:51;82.40;;;33.63;;
4049;SDS011;2039;50.894;6.888;2023-08-30T01:28:39;84.10;;;32.77;;
4049;SDS011;2039;50.894;6.888;2023-08-30T01:31:06;83.17;;;34.10;;
4049;SDS011;2039;50.894;6.888;2023-08-30T01:33:38;83.63;;;33.13;;
4049;SDS011;2039;50.894;6.888;2023-08-30T01:36:04;87.30;;;34.53;;
4049;SDS011;2039;50.894;6.888;2023-08-30T01:38:31;83.00;;;32.87;;
4049;SDS011;2039;50.894;6.888;2023-08-30T01:40:57;83.90;;;35.63;;
4049;SDS011;2039;50.894;6.888;2023-08-30T01:43:25;85.40;;;39.43;;
4049;SDS011;2039;50.894;6.888;2023-08-30T01:45:56;84.63;;;35.77;;
4049;SDS011;2039;50.894;6.888;2023-08-30T01:48:24;85.33;;;37.90;;
4049;SDS011;2039;50.894;6.888;2023-08-30T01:50:51;85.47;;;35.87;;
4049;SDS011;2039;50.894;6.888;2023-08-30T01:53:16;88.03;;;35.83;;
4049;SDS011;2039;50.894;6.888;2023-08-30T01:55:42;84.97;;;36.07;;
4049;SDS011;2039;50.894;6.888;2023-08-30T01:58:09;81.10;;;30.73;;
4049;SDS011;2039;50.894;6.888;2023-08-30T02:00:35;82.83;;;34.07;;
4049;SDS011;2039;50.894;6.888;2023-08-30T02:03:10;83.60;;;32.03;;
4049;SDS011;2039;50.894;6.888;2023-08-30T02:05:39;81.63;;;35.03;;
4049;SDS011;2039;50.894;6.888;2023-08-30T02:08:29;84.07;;;41.87;;
4049;SDS011;2039;50.894;6.888;2023-08-30T02:11:04;90.77;;;43.07;;
4049;SDS011;2039;50.894;6.888;2023-08-30T02:13:32;85.43;;;42.27;;
4049;SDS011;2039;50.894;6.888;2023-08-30T02:16:00;84.30;;;40.63;;
4049;SDS011;2039;50.894;6.888;2023-08-30T02:18:26;84.27;;;40.07;;
4049;SDS011;2039;50.894;6.888;2023-08-30T02:20:52;86.97;;;43.03;;
4049;SDS011;2039;50.894;6.888;2023-08-30T02:23:18;88.80;;;47.83;;
4049;SDS011;2039;50.894;6.888;2023-08-30T02:25:44;88.17;;;46.97;;
4049;SDS011;2039;50.894;6.888;2023-08-30T02:28:10;86.43;;;44.40;;
4049;SDS011;2039;50.894;6.888;2023-08-30T02:30:35;86.33;;;42.07;;
4049;SDS011;2039;50.894;6.888;2023-08-30T02:33:01;89.50;;;46.17;;
4049;SDS011;2039;50.894;6.888;2023-08-30T02:35:27;86.97;;;44.87;;
4049;SDS011;2039;50.894;6.888;2023-08-30T02:37:52;85.10;;;44.13;;
4049;SDS011;2039;50.894;6.888;2023-08-30T02:40:18;85.93;;;46.20;;
4049;SDS011;2039;50.894;6.888;2023-08-30T02:42:44;85.47;;;44.17;;
4049;SDS011;2039;50.894;6.888;2023-08-30T02:45:12;87.87;;;46.43;;
4049;SDS011;2039;50.894;6.888;2023-08-30T02:47:38;86.93;;;45.83;;
4049;SDS011;2039;50.894;6.888;2023-08-30T02:50:03;89.37;;;49.60;;
4049;SDS011;2039;50.894;6.888;2023-08-30T02:52:29;89.00;;;48.73;;
4049;SDS011;2039;50.894;6.888;2023-08-30T02:54:55;88.83;;;44.27;;
4049;SDS011;2039;50.894;6.888;2023-08-30T02:57:20;88.57;;;47.13;;
4049;SDS011;2039;50.894;6.888;2023-08-30T02:59:46;87.23;;;48.23;;
4049;SDS011;2039;50.894;6.888;2023-08-30T03:02:12;85.87;;;44.93;;
4049;SDS011;2039;50.894;6.888;2023-08-30T03:04:37;86.93;;;46.60;;
4049;SDS011;2039;50.894;6.888;2023-08-30T03:07:03;87.10;;;47.73;;
4049;SDS011;2039;50.894;6.888;2023-08-30T03:09:29;88.37;;;51.30;;
4049;SDS011;2039;50.894;6.888;2023-08-30T03:11:55;89.70;;;50.07;;
4049;SDS011;2039;50.894;6.888;2023-08-30T03:14:20;88.97;;;49.33;;
4049;SDS011;2039;50.894;6.888;2023-08-30T03:16:46;89.93;;;54.43;;
4049;SDS011;2039;50.894;6.888;2023-08-30T03:19:12;89.67;;;52.23;;
4049;SDS011;2039;50.894;6.888;2023-08-30T03:21:38;86.00;;;48.77;;
4049;SDS011;2039;50.894;6.888;2023-08-30T03:24:03;89.07;;;54.47;;
4049;SDS011;2039;50.894;6.888;2023-08-30T03:26:29;89.13;;;50.80;;
4049;SDS011;2039;50.894;6.888;2023-08-30T03:28:55;90.53;;;52.07;;
4049;SDS011;2039;50.894;6.888;2023-08-30T03:31:21;92.03;;;53.13;;
4049;SDS011;2039;50.894;6.888;2023-08-30T03:33:47;89.93;;;52.50;;
4049;SDS011;2039;50.894;6.888;2023-08-30T03:36:15;89.07;;;48.87;;
4049;SDS011;2039;50.894;6.888;2023-08-30T03:38:42;87.37;;;48.13;;
4049;SDS011;2039;50.894;6.888;2023-08-30T03:41:12;95.07;;;48.77;;
4049;SDS011;2039;50.894;6.888;2023-08-30T03:43:37;92.20;;;52.97;;
4049;SDS011;2039;50.894;6.888;2023-08-30T03:46:04;88.37;;;48.43;;
4049;SDS011;2039;50.894;6.888;2023-08-30T03:48:30;86.00;;;43.53;;
4049;SDS011;2039;50.894;6.888;2023-08-30T03:50:57;91.30;;;52.27;;
4049;SDS011;2039;50.894;6.888;2023-08-30T03:53:24;88.73;;;51.43;;
4049;SDS011;2039;50.894;6.888;2023-08-30T03:55:50;89.27;;;49.63;;
4049;SDS011;2039;50.894;6.888;2023-08-30T03:58:17;90.20;;;53.50;;
4049;SDS011;2039;50.894;6.888;2023-08-30T04:00:43;91.90;;;51.07;;
4049;SDS011;2039;50.894;6.888;2023-08-30T04:03:09;88.83;;;45.30;;
4049;SDS011;2039;50.894;6.888;2023-08-30T04:05:36;89.50;;;51.60;;
4049;SDS011;2039;50.894;6.888;2023-08-30T04:08:05;87.97;;;43.17;;
4049;SDS011;2039;50.894;6.888;2023-08-30T04:10:35;88.70;;;39.77;;
4049;SDS011;2039;50.894;6.888;2023-08-30T04:13:04;89.10;;;50.73;;
4049;SDS011;2039;50.894;6.888;2023-08-30T04:15:34;87.97;;;48.93;;
4049;SDS011;2039;50.894;6.888;2023-08-30T04:18:03;91.70;;;56.57;;
4049;SDS011;2039;50.894;6.888;2023-08-30T04:20:30;83.80;;;38.53;;
4049;SDS011;2039;50.894;6.888;2023-08-30T04:22:57;90.10;;;42.20;;
4049;SDS011;2039;50.894;6.888;2023-08-30T04:25:24;85.97;;;44.47;;
4049;SDS011;2039;50.894;6.888;2023-08-30T04:27:50;89.23;;;48.23;;
4049;SDS011;2039;50.894;6.888;2023-08-30T04:30:16;87.63;;;49.53;;
4049;SDS011;2039;50.894;6.888;2023-08-30T04:32:42;91.10;;;52.03;;
4049;SDS011;2039;50.894;6.888;2023-08-30T04:35:08;90.80;;;48.67;;
4049;SDS011;2039;50.894;6.888;2023-08-30T04:37:34;89.43;;;50.53;;
4049;SDS011;2039;50.894;6.888;2023-08-30T04:40:00;87.17;;;48.00;;
4049;SDS011;2039;50.894;6.888;2023-08-30T04:42:25;92.07;;;53.53;;
4049;SDS011;2039;50.894;6.888;2023-08-30T04:44:51;91.93;;;59.33;;
4049;SDS011;2039;50.894;6.888;2023-08-30T04:47:19;90.97;;;55.23;;
4049;SDS011;2039;50.894;6.888;2023-08-30T04:49:49;92.50;;;53.27;;
4049;SDS011;2039;50.894;6.888;2023-08-30T04:52:16;91.37;;;52.80;;
4049;SDS011;2039;50.894;6.888;2023-08-30T04:54:41;90.63;;;48.47;;
4049;SDS011;2039;50.894;6.888;2023-08-30T04:57:07;91.17;;;55.17;;
4049;SDS011;2039;50.894;6.888;2023-08-30T04:59:33;88.50;;;48.13;;
4049;SDS011;2039;50.894;6.888;2023-08-30T05:01:59;88.33;;;48.30;;
4049;SDS011;2039;50.894;6.888;2023-08-30T05:04:25;86.90;;;46.30;;
4049;SDS011;2039;50.894;6.888;2023-08-30T05:06:50;86.27;;;47.53;;
4049;SDS011;2039;50.894;6.888;2023-08-30T05:09:16;96.63;;;58.67;;
4049;SDS011;2039;50.894;6.888;2023-08-30T05:11:41;89.50;;;49.33;;
4049;SDS011;2039;50.894;6.888;2023-08-30T05:14:07;89.03;;;47.90;;
4049;SDS011;2039;50.894;6.888;2023-08-30T05:16:37;88.30;;;45.50;;
4049;SDS011;2039;50.894;6.888;2023-08-30T05:19:03;91.30;;;56.57;;
4049;SDS011;2039;50.894;6.888;2023-08-30T05:21:29;90.07;;;52.43;;
4049;SDS011;2039;50.894;6.888;2023-08-30T05:23:54;91.87;;;57.73;;
4049;SDS011;2039;50.894;6.888;2023-08-30T05:26:20;88.57;;;50.53;;
4049;SDS011;2039;50.894;6.888;2023-08-30T05:28:45;88.93;;;50.43;;
4049;SDS011;2039;50.894;6.888;2023-08-30T05:31:11;89.80;;;49.60;;
4049;SDS011;2039;50.894;6.888;2023-08-30T05:33:37;91.50;;;54.73;;
4049;SDS011;2039;50.894;6.888;2023-08-30T05:36:02;91.70;;;51.13;;
4049;SDS011;2039;50.894;6.888;2023-08-30T05:38:28;87.60;;;52.13;;
4049;SDS011;2039;50.894;6.888;2023-08-30T05:40:54;90.57;;;52.67;;
4049;SDS011;2039;50.894;6.888;2023-08-30T05:43:19;90.67;;;49.37;;
4049;SDS011;2039;50.894;6.888;2023-08-30T05:45:45;87.93;;;46.73;;
4049;SDS011;2039;50.894;6.888;2023-08-30T05:48:11;88.07;;;49.30;;
4049;SDS011;2039;50.894;6.888;2023-08-30T05:50:37;89.93;;;45.73;;
4049;SDS011;2039;50.894;6.888;2023-08-30T05:53:02;86.03;;;39.93;;
4049;SDS011;2039;50.894;6.888;2023-08-30T05:55:29;88.63;;;43.33;;
4049;SDS011;2039;50.894;6.888;2023-08-30T05:57:54;85.33;;;40.07;;
4049;SDS011;2039;50.894;6.888;2023-08-30T06:00:20;84.90;;;38.63;;
4049;SDS011;2039;50.894;6.888;2023-08-30T06:02:47;91.77;;;40.00;;
4049;SDS011;2039;50.894;6.888;2023-08-30T06:05:12;90.63;;;41.63;;
4049;SDS011;2039;50.894;6.888;2023-08-30T06:07:38;92.80;;;46.53;;
4049;SDS011;2039;50.894;6.888;2023-08-30T06:10:04;90.43;;;43.73;;
4049;SDS011;2039;50.894;6.888;2023-08-30T06:12:29;84.40;;;37.90;;
4049;SDS011;2039;50.894;6.888;2023-08-30T06:14:55;84.67;;;33.03;;
4049;SDS011;2039;50.894;6.888;2023-08-30T06:17:21;84.97;;;37.33;;
4049;SDS011;2039;50.894;6.888;2023-08-30T06:19:47;84.40;;;35.83;;
4049;SDS011;2039;50.894;6.888;2023-08-30T06:22:13;84.93;;;35.90;;
4049;SDS011;2039;50.894;6.888;2023-08-30T06:24:39;83.40;;;31.47;;
4049;SDS011;2039;50.894;6.888;2023-08-30T06:27:05;86.83;;;36.83;;
4049;SDS011;2039;50.894;6.888;2023-08-30T06:29:30;82.80;;;32.00;;
4049;SDS011;2039;50.894;6.888;2023-08-30T06:31:57;82.27;;;32.03;;
4049;SDS011;2039;50.894;6.888;2023-08-30T06:34:23;82.50;;;31.83;;
4049;SDS011;2039;50.894;6.888;2023-08-30T06:36:49;87.37;;;30.97;;
4049;SDS011;2039;50.894;6.888;2023-08-30T06:39:14;86.07;;;31.83;;
4049;SDS011;2039;50.894;6.888;2023-08-30T06:41:40;82.83;;;29.70;;
4049;SDS011;2039;50.894;6.888;2023-08-30T06:44:06;82.13;;;29.70;;
4049;SDS011;2039;50.894;6.888;2023-08-30T06:46:31;89.00;;;28.80;;
4049;SDS011;2039;50.894;6.888;2023-08-30T06:48:57;84.40;;;26.93;;
4049;SDS011;2039;50.894;6.888;2023-08-30T06:51:23;81.70;;;31.53;;
4049;SDS011;2039;50.894;6.888;2023-08-30T06:53:57;84.63;;;33.23;;
4049;SDS011;2039;50.894;6.888;2023-08-30T06:56:26;83.83;;;32.77;;
4049;SDS011;2039;50.894;6.888;2023-08-30T06:58:52;90.60;;;34.03;;
4049;SDS011;2039;50.894;6.888;2023-08-30T07:01:17;88.37;;;37.20;;
4049;SDS011;2039;50.894;6.888;2023-08-30T07:03:43;86.33;;;37.00;;
4049;SDS011;2039;50.894;6.888;2023-08-30T07:06:09;88.87;;;38.23;;
4049;SDS011;2039;50.894;6.888;2023-08-30T07:08:35;88.50;;;39.50;;
4049;SDS011;2039;50.894;6.888;2023-08-30T07:11:00;83.60;;;35.70;;
4049;SDS011;2039;50.894;6.888;2023-08-30T07:13:26;85.20;;;34.40;;
4049;SDS011;2039;50.894;6.888;2023-08-30T07:15:52;84.60;;;37.50;;
4049;SDS011;2039;50.894;6.888;2023-08-30T07:18:18;81.53;;;34.40;;
4049;SDS011;2039;50.894;6.888;2023-08-30T07:20:44;83.77;;;33.50;;
4049;SDS011;2039;50.894;6.888;2023-08-30T07:23:10;80.80;;;29.97;;
4049;SDS011;2039;50.894;6.888;2023-08-30T07:25:38;83.47;;;32.37;;
4049;SDS011;2039;50.894;6.888;2023-08-30T07:28:04;86.57;;;35.47;;
4049;SDS011;2039;50.894;6.888;2023-08-30T07:30:30;83.63;;;33.03;;
4049;SDS011;2039;50.894;6.888;2023-08-30T07:32:56;82.90;;;31.60;;
4049;SDS011;2039;50.894;6.888;2023-08-30T07:35:22;81.67;;;32.43;;
4049;SDS011;2039;50.894;6.888;2023-08-30T07:37:48;92.43;;;48.07;;
4049;SDS011;2039;50.894;6.888;2023-08-30T07:40:13;85.17;;;41.10;;
4049;SDS011;2039;50.894;6.888;2023-08-30T07:42:39;89.37;;;43.30;;
4049;SDS011;2039;50.894;6.888;2023-08-30T07:45:05;90.60;;;48.73;;
4049;SDS011;2039;50.894;6.888;2023-08-30T07:47:34;88.60;;;43.00;;
4049;SDS011;2039;50.894;6.888;2023-08-30T07:50:20;87.23;;;45.37;;
4049;SDS011;2039;50.894;6.888;2023-08-30T07:52:46;92.00;;;45.40;;
4049;SDS011;2039;50.894;6.888;2023-08-30T07:55:49;79.10;;;25.97;;
4049;SDS011;2039;50.894;6.888;2023-08-30T07:58:16;82.83;;;34.67;;
4049;SDS011;2039;50.894;6.888;2023-08-30T08:01:03;81.67;;;31.77;;
4049;SDS011;2039;50.894;6.888;2023-08-30T08:03:29;80.30;;;30.80;;
4049;SDS011;2039;50.894;6.888;2023-08-30T08:05:55;80.00;;;26.83;;
4049;SDS011;2039;50.894;6.888;2023-08-30T08:08:22;80.60;;;30.77;;
4049;SDS011;2039;50.894;6.888;2023-08-30T08:10:48;78.13;;;27.07;;
4049;SDS011;2039;50.894;6.888;2023-08-30T08:13:14;83.80;;;44.47;;
4049;SDS011;2039;50.894;6.888;2023-08-30T08:15:39;85.30;;;40.63;;
4049;SDS011;2039;50.894;6.888;2023-08-30T08:18:05;80.33;;;24.33;;
4049;SDS011;2039;50.894;6.888;2023-08-30T08:20:32;79.03;;;17.83;;
4049;SDS011;2039;50.894;6.888;2023-08-30T08:23:01;79.27;;;25.73;;
4049;SDS011;2039;50.894;6.888;2023-08-30T08:25:28;75.77;;;17.00;;
4049;SDS011;2039;50.894;6.888;2023-08-30T08:27:53;75.23;;;7.43;;
4049;SDS011;2039;50.894;6.888;2023-08-30T08:30:19;76.17;;;9.20;;
4049;SDS011;2039;50.894;6.888;2023-08-30T08:32:48;72.40;;;6.07;;
4049;SDS011;2039;50.894;6.888;2023-08-30T08:35:13;72.60;;;7.50;;
4049;SDS011;2039;50.894;6.888;2023-08-30T08:37:39;80.10;;;9.27;;
4049;SDS011;2039;50.894;6.888;2023-08-30T08:40:05;78.57;;;8.00;;
4049;SDS011;2039;50.894;6.888;2023-08-30T08:42:33;73.60;;;7.33;;
4049;SDS011;2039;50.894;6.888;2023-08-30T08:45:03;74.43;;;8.60;;
4049;SDS011;2039;50.894;6.888;2023-08-30T08:47:30;72.73;;;8.80;;
4049;SDS011;2039;50.894;6.888;2023-08-30T08:49:56;70.97;;;6.83;;
4049;SDS011;2039;50.894;6.888;2023-08-30T08:52:25;70.00;;;5.67;;
4049;SDS011;2039;50.894;6.888;2023-08-30T08:54:52;72.17;;;4.93;;
4049;SDS011;2039;50.894;6.888;2023-08-30T08:57:19;71.87;;;4.70;;
4049;SDS011;2039;50.894;6.888;2023-08-30T08:59:46;70.10;;;4.67;;
4049;SDS011;2039;50.894;6.888;2023-08-30T09:02:12;70.77;;;5.50;;
4049;SDS011;2039;50.894;6.888;2023-08-30T09:04:39;71.47;;;5.23;;
4049;SDS011;2039;50.894;6.888;2023-08-30T09:07:05;70.30;;;5.00;;
4049;SDS011;2039;50.894;6.888;2023-08-30T09:09:32;70.40;;;4.93;;
4049;SDS011;2039;50.894;6.888;2023-08-30T09:11:59;73.70;;;4.70;;
4049;SDS011;2039;50.894;6.888;2023-08-30T09:14:25;70.37;;;5.00;;
4049;SDS011;2039;50.894;6.888;2023-08-30T09:17:00;79.07;;;6.00;;
4049;SDS011;2039;50.894;6.888;2023-08-30T09:19:27;72.80;;;7.17;;
4049;SDS011;2039;50.894;6.888;2023-08-30T09:21:54;72.47;;;9.23;;
4049;SDS011;2039;50.894;6.888;2023-08-30T09:24:36;73.10;;;9.27;;
4049;SDS011;2039;50.894;6.888;2023-08-30T09:27:03;71.63;;;9.17;;
4049;SDS011;2039;50.894;6.888;2023-08-30T09:29:29;72.23;;;9.50;;
4049;SDS011;2039;50.894;6.888;2023-08-30T09:31:55;73.20;;;9.27;;
4049;SDS011;2039;50.894;6.888;2023-08-30T09:34:24;73.37;;;9.30;;
4049;SDS011;2039;50.894;6.888;2023-08-30T09:36:50;77.47;;;10.97;;
4049;SDS011;2039;50.894;6.888;2023-08-30T09:39:29;71.70;;;8.77;;
4049;SDS011;2039;50.894;6.888;2023-08-30T09:41:58;73.87;;;11.97;;
4049;SDS011;2039;50.894;6.888;2023-08-30T09:44:28;73.57;;;10.00;;
4049;SDS011;2039;50.894;6.888;2023-08-30T09:46:55;73.80;;;9.07;;
4049;SDS011;2039;50.894;6.888;2023-08-30T09:49:25;74.47;;;8.60;;
4049;SDS011;2039;50.894;6.888;2023-08-30T09:51:52;73.27;;;9.93;;
4049;SDS011;2039;50.894;6.888;2023-08-30T09:54:19;73.00;;;9.27;;
4049;SDS011;2039;50.894;6.888;2023-08-30T09:56:49;72.13;;;8.70;;
4049;SDS011;2039;50.894;6.888;2023-08-30T09:59:17;72.80;;;10.10;;
4049;SDS011;2039;50.894;6.888;2023-08-30T10:01:45;72.40;;;9.80;;
4049;SDS011;2039;50.894;6.888;2023-08-30T10:04:13;71.70;;;9.10;;
4049;SDS011;2039;50.894;6.888;2023-08-30T10:06:40;71.70;;;8.30;;
4049;SDS011;2039;50.894;6.888;2023-08-30T10:09:06;70.33;;;8.30;;
4049;SDS011;2039;50.894;6.888;2023-08-30T10:11:34;70.70;;;9.57;;
4049;SDS011;2039;50.894;6.888;2023-08-30T10:14:01;75.43;;;17.67;;
4049;SDS011;2039;50.894;6.888;2023-08-30T10:16:29;74.93;;;19.73;;
4049;SDS011;2039;50.894;6.888;2023-08-30T10:19:08;72.17;;;10.07;;
4049;SDS011;2039;50.894;6.888;2023-08-30T10:25:08;73.17;;;13.33;;
4049;SDS011;2039;50.894;6.888;2023-08-30T10:27:31;85.37;;;39.50;;
4049;SDS011;2039;50.894;6.888;2023-08-30T10:30:00;76.70;;;15.23;;
4049;SDS011;2039;50.894;6.888;2023-08-30T10:32:28;79.43;;;19.63;;
4049;SDS011;2039;50.894;6.888;2023-08-30T10:34:54;72.87;;;8.77;;
4049;SDS011;2039;50.894;6.888;2023-08-30T10:37:23;80.47;;;27.63;;
4049;SDS011;2039;50.894;6.888;2023-08-30T10:39:52;75.53;;;20.27;;
4049;SDS011;2039;50.894;6.888;2023-08-30T10:42:23;87.57;;;42.87;;
4049;SDS011;2039;50.894;6.888;2023-08-30T10:47:32;72.10;;;11.63;;
4049;SDS011;2039;50.894;6.888;2023-08-30T10:50:09;72.40;;;9.73;;
4049;SDS011;2039;50.894;6.888;2023-08-30T10:52:36;69.57;;;7.20;;
4049;SDS011;2039;50.894;6.888;2023-08-30T10:55:34;75.10;;;7.27;;
4049;SDS011;2039;50.894;6.888;2023-08-30T10:58:03;70.50;;;7.50;;
4049;SDS011;2039;50.894;6.888;2023-08-30T11:00:31;70.20;;;7.20;;
4049;SDS011;2039;50.894;6.888;2023-08-30T11:02:58;70.03;;;7.90;;
4049;SDS011;2039;50.894;6.888;2023-08-30T11:05:24;69.67;;;7.00;;
4049;SDS011;2039;50.894;6.888;2023-08-30T11:07:51;71.33;;;7.70;;
4049;SDS011;2039;50.894;6.888;2023-08-30T11:10:18;78.70;;;24.03;;
4049;SDS011;2039;50.894;6.888;2023-08-30T11:12:44;90.67;;;56.13;;
4049;SDS011;2039;50.894;6.888;2023-08-30T11:15:11;92.27;;;52.40;;
4049;SDS011;2039;50.894;6.888;2023-08-30T11:17:44;87.13;;;43.33;;
4049;SDS011;2039;50.894;6.888;2023-08-30T11:22:37;78.70;;;33.67;;
4049;SDS011;2039;50.894;6.888;2023-08-30T11:25:07;76.50;;;28.10;;
4049;SDS011;2039;50.894;6.888;2023-08-30T11:27:34;77.87;;;29.13;;
4049;SDS011;2039;50.894;6.888;2023-08-30T11:30:00;77.83;;;31.37;;
4049;SDS011;2039;50.894;6.888;2023-08-30T11:32:40;80.20;;;34.10;;
4049;SDS011;2039;50.894;6.888;2023-08-30T11:35:09;78.10;;;31.53;;
4049;SDS011;2039;50.894;6.888;2023-08-30T11:37:35;78.10;;;31.50;;
4049;SDS011;2039;50.894;6.888;2023-08-30T11:40:02;77.83;;;28.70;;
4049;SDS011;2039;50.894;6.888;2023-08-30T11:42:29;75.57;;;25.20;;
4049;SDS011;2039;50.894;6.888;2023-08-30T11:44:57;74.17;;;20.27;;
4049;SDS011;2039;50.894;6.888;2023-08-30T11:47:24;75.70;;;19.43;;
4049;SDS011;2039;50.894;6.888;2023-08-30T11:49:57;72.10;;;15.37;;
4049;SDS011;2039;50.894;6.888;2023-08-30T11:52:24;70.90;;;12.97;;
4049;SDS011;2039;50.894;6.888;2023-08-30T11:54:51;74.03;;;17.00;;
4049;SDS011;2039;50.894;6.888;2023-08-30T11:57:20;73.73;;;16.73;;
4049;SDS011;2039;50.894;6.888;2023-08-30T11:59:46;74.30;;;18.67;;
4049;SDS011;2039;50.894;6.888;2023-08-30T12:02:13;73.97;;;20.37;;
4049;SDS011;2039;50.894;6.888;2023-08-30T12:04:43;74.40;;;23.57;;
4049;SDS011;2039;50.894;6.888;2023-08-30T12:07:20;78.30;;;23.40;;
4049;SDS011;2039;50.894;6.888;2023-08-30T12:09:47;76.27;;;26.43;;
4049;SDS011;2039;50.894;6.888;2023-08-30T12:12:13;75.50;;;25.90;;
4049;SDS011;2039;50.894;6.888;2023-08-30T12:14:41;76.77;;;24.43;;
4049;SDS011;2039;50.894;6.888;2023-08-30T12:17:08;76.00;;;22.27;;
4049;SDS011;2039;50.894;6.888;2023-08-30T12:19:37;74.70;;;23.67;;
4049;SDS011;2039;50.894;6.888;2023-08-30T12:22:05;76.00;;;23.90;;
4049;SDS011;2039;50.894;6.888;2023-08-30T12:24:44;79.83;;;24.97;;
4049;SDS011;2039;50.894;6.888;2023-08-30T12:27:10;76.37;;;23.77;;
4049;SDS011;2039;50.894;6.888;2023-08-30T12:29:36;75.37;;;22.77;;
4049;SDS011;2039;50.894;6.888;2023-08-30T12:32:01;76.10;;;24.43;;
4049;SDS011;2039;50.894;6.888;2023-08-30T12:34:27;73.77;;;20.23;;
4049;SDS011;2039;50.894;6.888;2023-08-30T12:36:53;73.87;;;18.70;;
4049;SDS011;2039;50.894;6.888;2023-08-30T12:39:19;73.37;;;18.40;;
4049;SDS011;2039;50.894;6.888;2023-08-30T12:41:44;75.50;;;19.07;;
4049;SDS011;2039;50.894;6.888;2023-08-30T12:44:10;73.37;;;15.77;;
4049;SDS011;2039;50.894;6.888;2023-08-30T12:46:36;73.70;;;14.60;;
4049;SDS011;2039;50.894;6.888;2023-08-30T12:49:04;71.70;;;14.30;;
4049;SDS011;2039;50.894;6.888;2023-08-30T12:51:30;71.57;;;14.00;;
4049;SDS011;2039;50.894;6.888;2023-08-30T12:53:56;80.00;;;15.60;;
4049;SDS011;2039;50.894;6.888;2023-08-30T12:56:29;71.23;;;16.80;;
4049;SDS011;2039;50.894;6.888;2023-08-30T12:58:55;72.80;;;16.93;;
4049;SDS011;2039;50.894;6.888;2023-08-30T13:01:20;71.20;;;15.80;;
4049;SDS011;2039;50.894;6.888;2023-08-30T13:03:47;71.10;;;14.57;;
4049;SDS011;2039;50.894;6.888;2023-08-30T13:06:13;71.70;;;15.03;;
4049;SDS011;2039;50.894;6.888;2023-08-30T13:08:39;71.90;;;17.57;;
4049;SDS011;2039;50.894;6.888;2023-08-30T13:11:04;72.90;;;21.23;;
4049;SDS011;2039;50.894;6.888;2023-08-30T13:13:30;72.97;;;19.53;;
4049;SDS011;2039;50.894;6.888;2023-08-30T13:15:55;72.80;;;20.50;;
4049;SDS011;2039;50.894;6.888;2023-08-30T13:18:21;74.40;;;20.10;;
4049;SDS011;2039;50.894;6.888;2023-08-30T13:20:47;72.67;;;20.90;;
4049;SDS011;2039;50.894;6.888;2023-08-30T13:23:12;72.20;;;19.20;;
4049;SDS011;2039;50.894;6.888;2023-08-30T13:25:39;74.97;;;25.63;;
4049;SDS011;2039;50.894;6.888;2023-08-30T13:28:05;73.93;;;23.87;;
4049;SDS011;2039;50.894;6.888;2023-08-30T13:30:30;76.60;;;29.73;;
4049;SDS011;2039;50.894;6.888;2023-08-30T13:32:56;76.37;;;28.43;;
4049;SDS011;2039;50.894;6.888;2023-08-30T13:35:22;75.80;;;28.80;;
4049;SDS011;2039;50.894;6.888;2023-08-30T13:37:47;76.00;;;27.17;;
4049;SDS011;2039;50.894;6.888;2023-08-30T13:40:13;75.17;;;27.00;;
4049;SDS011;2039;50.894;6.888;2023-08-30T13:42:39;79.70;;;26.93;;
4049;SDS011;2039;50.894;6.888;2023-08-30T13:45:05;74.37;;;21.50;;
4049;SDS011;2039;50.894;6.888;2023-08-30T13:47:31;73.77;;;22.57;;
4049;SDS011;2039;50.894;6.888;2023-08-30T13:49:57;74.67;;;23.70;;
4049;SDS011;2039;50.894;6.888;2023-08-30T13:52:24;75.03;;;21.13;;
4049;SDS011;2039;50.894;6.888;2023-08-30T13:54:50;77.27;;;22.30;;
4049;SDS011;2039;50.894;6.888;2023-08-30T13:57:16;75.50;;;24.20;;
4049;SDS011;2039;50.894;6.888;2023-08-30T13:59:42;74.77;;;25.50;;
4049;SDS011;2039;50.894;6.888;2023-08-30T14:02:11;77.17;;;26.40;;
4049;SDS011;2039;50.894;6.888;2023-08-30T14:04:37;75.63;;;27.23;;
4049;SDS011;2039;50.894;6.888;2023-08-30T14:07:03;76.60;;;29.63;;
4049;SDS011;2039;50.894;6.888;2023-08-30T14:09:29;78.40;;;29.63;;
4049;SDS011;2039;50.894;6.888;2023-08-30T14:11:54;74.83;;;26.37;;
4049;SDS011;2039;50.894;6.888;2023-08-30T14:14:23;78.00;;;30.93;;
4049;SDS011;2039;50.894;6.888;2023-08-30T14:16:48;76.37;;;28.40;;
4049;SDS011;2039;50.894;6.888;2023-08-30T14:19:15;77.93;;;29.47;;
4049;SDS011;2039;50.894;6.888;2023-08-30T14:21:41;75.70;;;28.23;;
4049;SDS011;2039;50.894;6.888;2023-08-30T14:24:06;78.93;;;29.43;;
4049;SDS011;2039;50.894;6.888;2023-08-30T14:26:32;78.63;;;32.67;;
4049;SDS011;2039;50.894;6.888;2023-08-30T14:28:58;76.47;;;29.50;;
4049;SDS011;2039;50.894;6.888;2023-08-30T14:31:24;76.53;;;27.90;;
4049;SDS011;2039;50.894;6.888;2023-08-30T14:33:53;76.70;;;29.73;;
4049;SDS011;2039;50.894;6.888;2023-08-30T14:36:20;79.00;;;34.87;;
4049;SDS011;2039;50.894;6.888;2023-08-30T14:38:45;77.37;;;32.20;;
4049;SDS011;2039;50.894;6.888;2023-08-30T14:41:11;77.50;;;31.60;;
4049;SDS011;2039;50.894;6.888;2023-08-30T14:43:37;77.70;;;30.90;;
4049;SDS011;2039;50.894;6.888;2023-08-30T14:46:04;78.33;;;34.07;;
4049;SDS011;2039;50.894;6.888;2023-08-30T14:48:33;86.00;;;33.20;;
4049;SDS011;2039;50.894;6.888;2023-08-30T14:51:00;79.10;;;32.13;;
4049;SDS011;2039;50.894;6.888;2023-08-30T14:53:26;80.00;;;36.63;;
4049;SDS011;2039;50.894;6.888;2023-08-30T14:55:52;82.83;;;35.67;;
4049;SDS011;2039;50.894;6.888;2023-08-30T14:58:18;79.20;;;36.03;;
4049;SDS011;2039;50.894;6.888;2023-08-30T15:00:44;79.47;;;34.13;;
4049;SDS011;2039;50.894;6.888;2023-08-30T15:03:12;77.67;;;31.83;;
4049;SDS011;2039;50.894;6.888;2023-08-30T15:05:37;81.20;;;35.30;;